Time;durP1;ratioP1;P1;durP2;ratioP2;P2;SDS_P1;SDS_P2;PMS_P1;PMS_P2;Temp;Humidity;BMP_temperature;BMP_pressure;BME280_temperature;BME280_humidity;BME280_pressure;Samples;Min_cycle;Max_cycle;Signal;HPM_P1;HPM_P2
2021/11/18 00:00:35;;;;;;;24.25;22.70;;;8.00;89.30;;;;;;5007695;28;20198;-73
2021/11/18 00:03:02;;;;;;;23.85;22.35;;;8.10;88.80;;;;;;5009853;28;20226;-73
2021/11/18 00:05:31;;;;;;;26.17;24.42;;;8.10;88.40;;;;;;5007077;28;20202;-72
2021/11/18 00:07:58;;;;;;;25.63;23.83;;;8.10;87.60;;;;;;5008734;28;20262;-73
2021/11/18 00:10:27;;;;;;;24.77;23.20;;;8.10;87.50;;;;;;5005965;28;20257;-72
2021/11/18 00:12:57;;;;;;;24.50;22.88;;;8.10;88.50;;;;;;5000271;28;20214;-72
2021/11/18 00:15:26;;;;;;;25.35;23.75;;;8.10;88.10;;;;;;5007243;28;20566;-72
2021/11/18 00:17:54;;;;;;;24.63;23.02;;;8.10;88.10;;;;;;5003920;28;20201;-72
2021/11/18 00:20:21;;;;;;;25.30;23.60;;;8.10;91.70;;;;;;5007232;28;20202;-72
2021/11/18 00:22:48;;;;;;;25.10;23.50;;;8.10;89.30;;;;;;5007427;28;20222;-72
2021/11/18 00:25:16;;;;;;;25.60;23.90;;;8.00;89.30;;;;;;5007661;28;20755;-72
2021/11/18 00:27:43;;;;;;;25.77;23.98;;;8.00;89.00;;;;;;5006772;28;20943;-73
2021/11/18 00:30:13;;;;;;;24.40;22.77;;;8.00;88.40;;;;;;5008510;28;20222;-72
2021/11/18 00:32:41;;;;;;;24.77;23.17;;;8.00;88.40;;;;;;5007795;28;20222;-72
2021/11/18 00:35:11;;;;;;;103.03;30.65;;;8.10;88.50;;;;;;5008957;28;20198;-72
2021/11/18 00:37:38;;;;;;;24.10;22.40;;;8.20;87.50;;;;;;5007784;28;20206;-72
2021/11/18 00:40:06;;;;;;;24.20;22.60;;;8.10;88.90;;;;;;5008388;28;20676;-72
2021/11/18 00:42:34;;;;;;;24.45;22.95;;;8.10;87.70;;;;;;5007163;28;20627;-72
2021/11/18 00:45:01;;;;;;;26.58;24.77;;;8.10;87.80;;;;;;5005609;28;20321;-72
2021/11/18 00:47:29;;;;;;;23.08;21.65;;;8.10;87.60;;;;;;5007719;28;20194;-73
2021/11/18 00:49:56;;;;;;;23.35;21.95;;;8.00;87.80;;;;;;5009221;28;20222;-72
2021/11/18 00:52:24;;;;;;;22.63;21.25;;;8.00;88.00;;;;;;5005222;28;20200;-72
2021/11/18 00:54:51;;;;;;;24.50;23.00;;;8.10;88.60;;;;;;5007583;28;20197;-72
2021/11/18 00:57:18;;;;;;;23.90;22.40;;;8.20;88.60;;;;;;5006690;28;20205;-73
2021/11/18 00:59:46;;;;;;;23.90;22.55;;;8.10;87.40;;;;;;5006265;28;20220;-73
2021/11/18 01:02:13;;;;;;;23.90;22.50;;;8.00;87.50;;;;;;5006855;28;20194;-72
2021/11/18 01:04:41;;;;;;;25.23;23.73;;;8.00;88.30;;;;;;5007734;28;20208;-72
2021/11/18 01:07:08;;;;;;;23.05;21.75;;;8.00;88.00;;;;;;5007108;28;20205;-72
2021/11/18 01:09:35;;;;;;;23.70;22.10;;;8.00;88.30;;;;;;5005952;28;20218;-73
2021/11/18 01:12:02;;;;;;;24.00;22.50;;;8.10;88.20;;;;;;5007801;28;20197;-73
2021/11/18 01:14:30;;;;;;;24.20;22.60;;;8.20;87.50;;;;;;5008208;28;20220;-72
2021/11/18 01:16:57;;;;;;;22.30;20.95;;;8.10;88.80;;;;;;5007766;28;20229;-72
2021/11/18 01:19:24;;;;;;;23.65;22.00;;;8.10;88.20;;;;;;5007745;28;20204;-72
2021/11/18 01:21:53;;;;;;;23.73;22.23;;;8.00;88.90;;;;;;5006259;28;20202;-72
2021/11/18 01:24:20;;;;;;;23.65;22.25;;;8.00;88.40;;;;;;5008687;28;20268;-73
2021/11/18 01:26:48;;;;;;;23.52;21.85;;;8.00;88.30;;;;;;5005055;28;21379;-72
2021/11/18 01:29:15;;;;;;;24.95;23.25;;;7.90;89.20;;;;;;5004465;28;20206;-73
2021/11/18 01:31:42;;;;;;;24.52;22.92;;;8.00;88.70;;;;;;5007064;28;20198;-72
2021/11/18 01:34:09;;;;;;;23.77;22.27;;;8.00;89.50;;;;;;5007917;28;20232;-72
2021/11/18 01:36:36;;;;;;;25.15;23.45;;;8.00;91.00;;;;;;5007232;28;20245;-72
2021/11/18 01:39:06;;;;;;;24.70;23.00;;;8.00;91.40;;;;;;5007180;28;20202;-72
2021/11/18 01:41:37;;;;;;;24.38;22.88;;;8.00;90.00;;;;;;5005322;28;20195;-73
2021/11/18 01:44:11;;;;;;;25.05;23.35;;;8.00;89.70;;;;;;5005961;28;20226;-72
2021/11/18 01:46:38;;;;;;;23.98;22.38;;;8.10;89.30;;;;;;5005940;28;20670;-72
2021/11/18 01:49:07;;;;;;;23.88;22.35;;;8.10;88.60;;;;;;5007618;28;20204;-72
2021/11/18 01:51:39;;;;;;;23.15;21.65;;;8.10;90.50;;;;;;5003943;28;20213;-72
2021/11/18 01:54:07;;;;;;;24.05;22.48;;;8.10;89.90;;;;;;5007112;28;20672;-72
2021/11/18 01:56:37;;;;;;;1954.90;257.45;;;8.00;90.70;;;;;;5004991;28;20632;-74
2021/11/18 01:59:11;;;;;;;24.05;22.33;;;8.00;93.50;;;;;;5006780;28;20565;-75
2021/11/18 02:01:40;;;;;;;23.55;22.00;;;8.00;92.20;;;;;;4998482;28;20201;-74
2021/11/18 02:04:10;;;;;;;23.70;22.20;;;8.00;91.00;;;;;;5005590;28;20218;-73
2021/11/18 02:06:47;;;;;;;24.05;22.45;;;8.00;90.90;;;;;;5005640;28;20301;-72
2021/11/18 02:09:18;;;;;;;23.58;22.02;;;8.00;90.70;;;;;;5005607;28;20204;-72
2021/11/18 02:11:47;;;;;;;24.52;22.85;;;8.00;90.20;;;;;;5004564;28;20202;-72
2021/11/18 02:14:16;;;;;;;24.10;22.50;;;8.00;90.30;;;;;;5005172;28;20538;-72
2021/11/18 02:16:45;;;;;;;23.33;21.83;;;8.00;90.30;;;;;;5007233;28;20198;-72
2021/11/18 02:19:13;;;;;;;22.80;21.40;;;8.00;91.60;;;;;;5008146;28;20201;-73
2021/11/18 02:21:46;;;;;;;23.50;22.00;;;8.00;91.80;;;;;;5006229;28;20224;-72
2021/11/18 02:24:21;;;;;;;23.20;21.70;;;8.00;91.10;;;;;;5007704;28;20222;-73
2021/11/18 02:26:48;;;;;;;23.13;21.75;;;8.00;91.10;;;;;;5004521;28;20208;-73
2021/11/18 02:29:15;;;;;;;22.58;21.15;;;8.00;90.90;;;;;;4999563;28;20204;-72
2021/11/18 02:31:51;;;;;;;23.15;21.63;;;8.00;90.20;;;;;;5002754;28;20591;-72
2021/11/18 02:34:22;;;;;;;24.10;22.30;;;8.00;90.30;;;;;;5008973;28;20228;-72
2021/11/18 02:36:50;;;;;;;23.17;21.75;;;8.00;90.40;;;;;;5005806;28;20281;-72
2021/11/18 02:39:17;;;;;;;23.67;22.13;;;8.00;90.00;;;;;;5011528;28;20198;-72
2021/11/18 02:41:44;;;;;;;22.75;21.45;;;8.00;89.60;;;;;;5004167;28;20430;-72
2021/11/18 02:44:11;;;;;;;22.85;21.45;;;8.00;89.40;;;;;;5008287;28;20700;-72
2021/11/18 02:46:38;;;;;;;22.20;20.80;;;8.00;89.10;;;;;;5010145;28;20206;-72
2021/11/18 02:49:06;;;;;;;22.67;21.27;;;8.10;88.90;;;;;;5011150;28;20511;-72
2021/11/18 02:51:33;;;;;;;23.83;22.33;;;7.90;89.50;;;;;;5008411;28;20217;-72
2021/11/18 02:54:03;;;;;;;23.00;21.60;;;7.80;90.10;;;;;;5011294;28;20222;-72
2021/11/18 02:56:32;;;;;;;23.42;22.02;;;7.80;91.10;;;;;;5008198;28;20205;-74
2021/11/18 02:59:00;;;;;;;24.08;22.55;;;7.80;91.20;;;;;;5009116;28;20210;-73
2021/11/18 03:01:31;;;;;;;23.35;21.85;;;7.80;91.00;;;;;;5001997;28;20194;-73
2021/11/18 03:03:59;;;;;;;22.70;21.40;;;7.80;90.90;;;;;;5009289;28;20228;-73
2021/11/18 03:06:27;;;;;;;23.10;21.73;;;7.80;90.40;;;;;;5005587;28;20201;-73
2021/11/18 03:08:55;;;;;;;24.70;23.20;;;7.90;90.30;;;;;;5008583;28;20213;-74
2021/11/18 03:11:25;;;;;;;23.60;21.88;;;7.90;90.20;;;;;;5005968;28;20575;-73
2021/11/18 03:13:54;;;;;;;22.65;21.25;;;7.80;90.20;;;;;;5009505;28;20257;-73
2021/11/18 03:16:21;;;;;;;23.60;22.20;;;7.90;90.10;;;;;;5008163;28;20552;-73
2021/11/18 03:18:49;;;;;;;22.65;21.35;;;7.80;90.20;;;;;;5008319;28;20202;-73
2021/11/18 03:21:17;;;;;;;22.83;21.33;;;7.80;90.30;;;;;;5008281;28;20199;-73
2021/11/18 03:23:45;;;;;;;22.33;20.73;;;7.80;90.40;;;;;;5010995;28;20229;-74
2021/11/18 03:26:14;;;;;;;23.20;21.80;;;7.80;90.40;;;;;;5007919;28;20198;-73
2021/11/18 03:28:43;;;;;;;23.92;22.33;;;7.80;90.70;;;;;;5010596;28;20768;-74
2021/11/18 03:31:12;;;;;;;24.52;22.33;;;7.80;91.50;;;;;;5005781;28;20225;-73
2021/11/18 03:33:42;;;;;;;24.15;22.55;;;7.90;91.90;;;;;;5016443;28;20229;-73
2021/11/18 03:36:10;;;;;;;1999.90;549.30;;;7.90;93.80;;;;;;5013671;28;20197;-73
2021/11/18 03:38:38;;;;;;;23.90;22.33;;;7.90;97.10;;;;;;5010366;28;20205;-74
2021/11/18 03:41:06;;;;;;;23.95;22.35;;;8.00;96.30;;;;;;5004962;28;20226;-75
2021/11/18 03:43:35;;;;;;;23.13;21.58;;;7.90;94.90;;;;;;5003199;28;20313;-74
2021/11/18 03:46:05;;;;;;;22.60;21.23;;;7.90;93.80;;;;;;5008906;28;20208;-73
2021/11/18 03:48:34;;;;;;;23.40;21.90;;;7.90;92.50;;;;;;5010599;28;20205;-73
2021/11/18 03:51:01;;;;;;;23.00;21.40;;;7.90;93.10;;;;;;4997056;28;20230;-73
2021/11/18 03:53:33;;;;;;;23.23;21.73;;;8.00;92.80;;;;;;5011006;28;20222;-74
2021/11/18 03:56:00;;;;;;;23.35;21.63;;;8.00;92.50;;;;;;5006939;28;20203;-73
2021/11/18 03:58:27;;;;;;;23.83;22.20;;;8.00;93.20;;;;;;5009871;28;20206;-74
2021/11/18 04:00:54;;;;;;;23.42;21.92;;;8.00;92.30;;;;;;5006702;28;20191;-74
2021/11/18 04:03:23;;;;;;;23.67;22.10;;;8.00;92.00;;;;;;5009125;28;20245;-74
2021/11/18 04:05:49;;;;;;;23.10;21.70;;;8.00;91.70;;;;;;5008035;28;20205;-73
2021/11/18 04:08:16;;;;;;;39.90;22.85;;;8.00;91.40;;;;;;5009085;28;20202;-73
2021/11/18 04:10:44;;;;;;;24.90;22.80;;;8.10;94.30;;;;;;5007180;28;20221;-73
2021/11/18 04:13:11;;;;;;;25.25;23.65;;;8.00;95.70;;;;;;5009006;28;20218;-74
2021/11/18 04:15:38;;;;;;;22.17;20.88;;;8.00;94.90;;;;;;5006854;28;20202;-73
2021/11/18 04:18:05;;;;;;;25.40;23.55;;;8.00;94.40;;;;;;5010534;28;20914;-74
2021/11/18 04:20:35;;;;;;;23.60;22.20;;;8.10;93.40;;;;;;5007477;28;20198;-73
2021/11/18 04:23:03;;;;;;;25.02;23.15;;;8.10;92.20;;;;;;5007704;28;20232;-73
2021/11/18 04:25:33;;;;;;;24.52;22.92;;;8.10;91.40;;;;;;5006071;28;20194;-73
2021/11/18 04:28:01;;;;;;;24.30;22.52;;;8.00;90.70;;;;;;5008892;28;20202;-74
2021/11/18 04:30:31;;;;;;;24.75;23.15;;;8.00;90.90;;;;;;5006536;28;20234;-73
2021/11/18 04:32:58;;;;;;;24.73;23.23;;;8.00;91.40;;;;;;5008811;28;20244;-74
2021/11/18 04:35:26;;;;;;;25.13;23.42;;;8.00;92.20;;;;;;5007279;28;20292;-74
2021/11/18 04:37:54;;;;;;;23.65;22.08;;;7.90;92.60;;;;;;5008849;28;20672;-74
2021/11/18 04:40:21;;;;;;;24.65;22.88;;;7.90;92.30;;;;;;5007047;28;20194;-73
2021/11/18 04:42:48;;;;;;;26.77;24.95;;;8.00;92.00;;;;;;5008339;28;20675;-73
2021/11/18 04:45:19;;;;;;;26.40;24.80;;;8.00;91.80;;;;;;5005769;28;20196;-75
2021/11/18 04:47:45;;;;;;;59.88;27.52;;;8.00;91.70;;;;;;5009462;28;20674;-74
2021/11/18 04:50:13;;;;;;;25.50;23.67;;;8.00;92.10;;;;;;5009015;28;20202;-74
2021/11/18 04:52:41;;;;;;;161.55;34.78;;;8.10;93.10;;;;;;5008630;28;20305;-74
2021/11/18 04:55:11;;;;;;;26.75;24.85;;;8.10;93.30;;;;;;5004281;28;20201;-74
2021/11/18 04:57:39;;;;;;;25.17;23.48;;;8.10;93.30;;;;;;5006215;28;20220;-74
2021/11/18 05:00:11;;;;;;;25.42;23.83;;;8.10;92.40;;;;;;5009170;28;20281;-74
2021/11/18 05:02:38;;;;;;;26.45;24.73;;;8.10;92.00;;;;;;5003588;28;20226;-73
2021/11/18 05:05:07;;;;;;;25.83;24.13;;;8.00;91.60;;;;;;5008462;28;20317;-74
2021/11/18 05:07:35;;;;;;;26.33;24.23;;;8.10;91.50;;;;;;5008732;28;20590;-73
2021/11/18 05:10:03;;;;;;;184.00;37.30;;;8.20;90.90;;;;;;5004715;28;20237;-73
2021/11/18 05:12:31;;;;;;;26.92;25.10;;;8.20;90.80;;;;;;5010257;28;20218;-74
2021/11/18 05:14:58;;;;;;;25.92;24.13;;;8.20;91.70;;;;;;5007488;28;20204;-74
2021/11/18 05:17:25;;;;;;;26.02;24.33;;;8.20;91.40;;;;;;5006196;28;20202;-73
2021/11/18 05:19:52;;;;;;;27.58;25.67;;;8.20;91.00;;;;;;5007961;28;20206;-74
2021/11/18 05:22:18;;;;;;;25.63;23.83;;;8.20;91.00;;;;;;5006770;28;20588;-73
2021/11/18 05:24:45;;;;;;;26.30;24.50;;;8.20;90.80;;;;;;5004926;28;20202;-73
2021/11/18 05:27:13;;;;;;;29.60;27.60;;;8.20;90.70;;;;;;5006742;28;20285;-73
2021/11/18 05:29:42;;;;;;;25.13;23.42;;;8.20;92.20;;;;;;5008085;28;20202;-74
2021/11/18 05:32:09;;;;;;;62.08;30.85;;;8.30;92.20;;;;;;5003974;28;20472;-72
2021/11/18 05:34:39;;;;;;;26.88;25.08;;;8.30;91.70;;;;;;5007130;28;20241;-74
2021/11/18 05:37:06;;;;;;;27.05;25.15;;;8.30;91.80;;;;;;5006236;28;20664;-76
2021/11/18 05:39:34;;;;;;;27.10;25.25;;;8.20;92.00;;;;;;5004567;28;20309;-73
2021/11/18 05:42:02;;;;;;;26.45;24.65;;;8.20;91.50;;;;;;5006736;28;20206;-73
2021/11/18 05:44:29;;;;;;;29.25;26.67;;;8.20;91.40;;;;;;5002549;28;20221;-75
2021/11/18 05:46:58;;;;;;;27.60;25.38;;;8.20;91.10;;;;;;5005771;28;20186;-73
2021/11/18 05:49:25;;;;;;;70.18;30.63;;;8.20;92.20;;;;;;5002439;28;20197;-73
2021/11/18 05:51:52;;;;;;;29.80;27.83;;;8.20;92.50;;;;;;5002892;28;20210;-74
2021/11/18 05:54:21;;;;;;;27.17;25.10;;;8.20;92.60;;;;;;5006920;28;20225;-75
2021/11/18 05:56:48;;;;;;;26.75;24.95;;;8.30;92.00;;;;;;5006531;28;20571;-73
2021/11/18 05:59:15;;;;;;;28.35;26.35;;;8.20;91.00;;;;;;5006107;28;20194;-74
2021/11/18 06:01:42;;;;;;;29.60;27.40;;;8.20;91.00;;;;;;5001590;28;20216;-75
2021/11/18 06:04:11;;;;;;;28.08;26.10;;;8.20;90.90;;;;;;5007491;28;20333;-75
2021/11/18 06:06:39;;;;;;;27.83;25.90;;;8.30;90.40;;;;;;5007235;28;20208;-73
2021/11/18 06:09:06;;;;;;;28.48;26.38;;;8.30;89.50;;;;;;5008340;28;20198;-76
2021/11/18 06:11:38;;;;;;;182.27;40.65;;;8.30;89.50;;;;;;5005034;28;20218;-73
2021/11/18 06:14:06;;;;;;;26.88;25.20;;;8.30;90.10;;;;;;5006649;28;20970;-76
2021/11/18 06:16:34;;;;;;;28.08;26.17;;;8.20;91.20;;;;;;5007569;28;20284;-76
2021/11/18 06:19:02;;;;;;;29.38;27.20;;;8.20;91.10;;;;;;5006426;28;20724;-75
2021/11/18 06:21:31;;;;;;;28.90;26.85;;;8.30;90.80;;;;;;5004747;28;20193;-75
2021/11/18 06:23:59;;;;;;;28.10;26.10;;;8.30;90.30;;;;;;5007238;28;20549;-75
2021/11/18 06:26:27;;;;;;;29.27;27.08;;;8.50;89.60;;;;;;5006760;28;20535;-73
2021/11/18 06:28:54;;;;;;;30.17;27.88;;;8.50;88.80;;;;;;5006471;28;20478;-74
2021/11/18 06:31:22;;;;;;;31.20;29.00;;;8.50;88.90;;;;;;5001613;28;20217;-75
2021/11/18 06:33:49;;;;;;;28.13;26.13;;;8.40;88.80;;;;;;5007573;28;20244;-74
2021/11/18 06:36:17;;;;;;;29.67;27.58;;;8.40;89.20;;;;;;5006270;28;20742;-74
2021/11/18 06:38:49;;;;;;;309.23;55.33;;;8.30;90.00;;;;;;5008316;28;21034;-73
2021/11/18 06:41:16;;;;;;;30.98;28.55;;;8.50;90.00;;;;;;5004209;28;20528;-73
2021/11/18 06:43:45;;;;;;;645.67;99.90;;;8.50;91.90;;;;;;5000523;28;20877;-71
2021/11/18 06:46:13;;;;;;;32.35;29.75;;;8.40;93.00;;;;;;5005763;28;20216;-72
2021/11/18 06:48:40;;;;;;;31.33;28.88;;;8.40;93.30;;;;;;5003756;28;20194;-71
2021/11/18 06:51:10;;;;;;;28.80;26.70;;;8.40;92.10;;;;;;5005161;28;20217;-71
2021/11/18 06:53:39;;;;;;;30.15;27.90;;;8.40;90.60;;;;;;5006871;28;20210;-72
2021/11/18 06:56:11;;;;;;;1370.75;169.02;;;8.40;90.40;;;;;;5001963;28;20254;-71
2021/11/18 06:58:38;;;;;;;30.17;27.98;;;8.30;93.00;;;;;;5006079;28;20202;-72
2021/11/18 07:01:06;;;;;;;55.58;29.92;;;8.30;93.50;;;;;;5005181;28;20214;-73
2021/11/18 07:03:39;;;;;;;154.45;38.05;;;8.40;92.80;;;;;;5008388;28;20226;-72
2021/11/18 07:06:06;;;;;;;30.95;28.45;;;8.40;93.10;;;;;;4995348;28;20202;-72
2021/11/18 07:08:33;;;;;;;29.67;27.35;;;8.40;93.20;;;;;;5007667;28;20230;-72
2021/11/18 07:11:01;;;;;;;30.75;28.15;;;8.40;92.20;;;;;;5005089;28;20209;-73
2021/11/18 07:13:32;;;;;;;32.70;29.95;;;8.40;91.90;;;;;;5007783;28;20545;-74
2021/11/18 07:16:00;;;;;;;31.38;28.90;;;8.40;91.80;;;;;;5005311;28;20241;-73
2021/11/18 07:18:28;;;;;;;28.90;26.70;;;8.50;91.00;;;;;;5010376;28;20212;-73
2021/11/18 07:20:55;;;;;;;32.25;29.65;;;8.50;90.70;;;;;;5008837;28;20281;-71
2021/11/18 07:23:23;;;;;;;33.47;30.27;;;8.60;90.90;;;;;;5010275;28;20471;-73
2021/11/18 07:25:56;;;;;;;31.70;29.30;;;8.80;90.70;;;;;;5009508;28;20201;-72
2021/11/18 07:28:25;;;;;;;31.17;28.90;;;8.80;89.90;;;;;;5010262;28;20685;-73
2021/11/18 07:30:54;;;;;;;31.45;29.23;;;8.70;89.90;;;;;;5009221;28;20503;-73
2021/11/18 07:33:23;;;;;;;31.00;28.50;;;8.60;89.70;;;;;;5010143;28;20233;-73
2021/11/18 07:35:53;;;;;;;31.70;29.30;;;8.60;89.60;;;;;;5009132;28;20964;-73
2021/11/18 07:38:21;;;;;;;31.95;29.55;;;8.60;90.50;;;;;;5010698;28;20699;-74
2021/11/18 07:40:52;;;;;;;34.97;31.67;;;8.60;90.50;;;;;;5009440;28;20208;-72
2021/11/18 07:43:23;;;;;;;33.13;30.50;;;8.60;92.30;;;;;;5011295;28;20209;-73
2021/11/18 07:45:52;;;;;;;31.10;28.65;;;8.70;91.70;;;;;;5006862;28;20469;-73
2021/11/18 07:48:20;;;;;;;30.02;27.48;;;8.70;91.70;;;;;;5011964;28;20206;-74
2021/11/18 07:50:51;;;;;;;29.27;27.10;;;8.80;90.30;;;;;;5006884;28;20268;-72
2021/11/18 07:53:18;;;;;;;32.57;29.93;;;8.80;89.60;;;;;;5011777;28;20930;-72
2021/11/18 07:55:47;;;;;;;29.30;27.03;;;8.90;89.40;;;;;;5007780;28;21232;-72
2021/11/18 07:58:16;;;;;;;30.10;27.73;;;8.90;88.80;;;;;;5012095;28;20472;-72
2021/11/18 08:00:44;;;;;;;31.40;28.98;;;8.90;88.80;;;;;;5009175;28;20476;-72
2021/11/18 08:03:14;;;;;;;30.80;28.40;;;9.00;88.20;;;;;;5011008;28;20232;-71
2021/11/18 08:05:43;;;;;;;30.57;28.30;;;9.10;88.20;;;;;;5007940;28;20545;-71
2021/11/18 08:08:20;;;;;;;32.67;30.33;;;9.10;88.00;;;;;;5011278;28;20461;-74
2021/11/18 08:10:48;;;;;;;30.90;28.50;;;9.10;87.60;;;;;;5010333;28;20468;-71
2021/11/18 08:13:15;;;;;;;30.40;28.10;;;9.10;87.70;;;;;;5010441;28;20558;-71
2021/11/18 08:15:45;;;;;;;36.38;33.45;;;9.10;87.60;;;;;;5009297;28;20541;-71
2021/11/18 08:18:15;;;;;;;33.27;29.77;;;9.10;89.90;;;;;;5011117;28;20276;-73
2021/11/18 08:20:43;;;;;;;34.70;31.17;;;9.10;88.80;;;;;;5007222;28;20453;-72
2021/11/18 08:23:11;;;;;;;33.10;30.03;;;9.10;89.10;;;;;;5010458;28;20489;-72
2021/11/18 08:25:39;;;;;;;33.73;30.47;;;9.10;88.70;;;;;;5005976;28;20460;-72
2021/11/18 08:28:08;;;;;;;36.57;33.23;;;9.10;88.40;;;;;;5010341;28;20515;-72
2021/11/18 08:30:36;;;;;;;36.33;33.13;;;9.10;88.40;;;;;;5008148;28;20906;-70
2021/11/18 08:33:07;;;;;;;37.43;31.67;;;9.10;88.20;;;;;;5009853;28;20481;-70
2021/11/18 08:35:35;;;;;;;34.07;30.90;;;9.20;87.60;;;;;;5008456;28;20576;-71
2021/11/18 08:38:10;;;;;;;33.53;30.63;;;9.20;88.80;;;;;;5006752;28;20962;-70
2021/11/18 08:40:39;;;;;;;33.83;31.23;;;9.20;88.90;;;;;;5004338;28;20461;-71
2021/11/18 08:43:07;;;;;;;33.07;30.27;;;9.30;88.10;;;;;;5007911;28;20639;-71
2021/11/18 08:45:35;;;;;;;34.35;31.33;;;9.40;87.70;;;;;;5007385;28;20465;-70
2021/11/18 08:48:04;;;;;;;37.05;33.50;;;9.50;86.90;;;;;;5009790;28;20194;-71
2021/11/18 08:50:32;;;;;;;36.07;32.70;;;9.60;86.60;;;;;;5008353;28;20204;-71
2021/11/18 08:52:59;;;;;;;35.10;31.70;;;9.60;86.00;;;;;;5009783;28;20480;-71
2021/11/18 08:55:31;;;;;;;35.10;31.87;;;9.70;85.70;;;;;;5007992;28;20472;-70
2021/11/18 08:57:58;;;;;;;35.57;32.40;;;9.70;86.90;;;;;;5010411;28;20557;-71
2021/11/18 09:00:28;;;;;;;35.10;31.80;;;9.70;87.00;;;;;;5007822;28;20463;-70
2021/11/18 09:02:56;;;;;;;35.60;31.93;;;9.70;87.30;;;;;;4998719;28;20488;-71
2021/11/18 09:05:25;;;;;;;35.67;32.50;;;9.80;87.40;;;;;;5008765;28;20562;-70
2021/11/18 09:07:52;;;;;;;34.70;31.90;;;9.80;89.80;;;;;;5005171;28;20449;-71
2021/11/18 09:10:19;;;;;;;35.40;32.13;;;9.80;88.30;;;;;;5008150;28;20453;-70
2021/11/18 09:12:48;;;;;;;35.47;32.03;;;9.90;87.30;;;;;;5007427;28;20924;-70
2021/11/18 09:15:19;;;;;;;37.17;33.90;;;10.00;85.60;;;;;;5008293;28;20456;-70
2021/11/18 09:17:46;;;;;;;34.73;31.43;;;10.00;85.30;;;;;;5008500;28;20460;-70
2021/11/18 09:20:17;;;;;;;36.53;33.33;;;10.00;85.30;;;;;;5009799;28;20459;-73
2021/11/18 09:22:45;;;;;;;36.03;32.50;;;10.10;85.30;;;;;;5008784;28;20493;-72
2021/11/18 09:25:14;;;;;;;34.50;31.00;;;10.10;85.00;;;;;;5006611;28;20456;-72
2021/11/18 09:27:44;;;;;;;33.53;30.53;;;10.10;85.10;;;;;;5008771;28;20465;-72
2021/11/18 09:30:17;;;;;;;33.40;30.50;;;10.20;84.80;;;;;;5001953;28;20460;-72
2021/11/18 09:32:44;;;;;;;36.23;32.63;;;10.20;84.00;;;;;;5007633;28;20480;-72
2021/11/18 09:35:14;;;;;;;36.83;33.13;;;10.20;84.40;;;;;;5008855;28;20461;-72
2021/11/18 09:37:41;;;;;;;34.67;31.53;;;10.10;84.60;;;;;;5008839;28;20475;-72
2021/11/18 09:40:12;;;;;;;33.57;30.30;;;10.10;87.20;;;;;;5009052;28;20453;-72
2021/11/18 09:42:52;;;;;;;31.63;28.93;;;10.10;86.00;;;;;;5007492;28;20479;-72
2021/11/18 09:45:24;;;;;;;47.47;36.73;;;10.20;84.60;;;;;;5004972;28;20464;-73
2021/11/18 09:48:23;;;;;;;37.73;33.93;;;10.20;83.70;;;;;;5005314;28;20835;-72
2021/11/18 09:51:08;;;;;;;34.70;31.80;;;10.10;84.40;;;;;;5004143;28;20472;-72
2021/11/18 09:53:52;;;;;;;33.83;31.20;;;10.30;84.20;;;;;;5002416;28;20487;-72
2021/11/18 09:56:27;;;;;;;34.37;31.37;;;10.30;85.70;;;;;;5006193;28;20464;-72
2021/11/18 09:59:27;;;;;;;32.80;29.90;;;10.30;84.60;;;;;;5009855;28;20533;-71
2021/11/18 10:02:18;;;;;;;35.77;32.83;;;10.40;84.10;;;;;;5006460;28;20536;-72
2021/11/18 10:04:51;;;;;;;34.03;31.20;;;10.60;83.60;;;;;;5001600;28;21345;-72
2021/11/18 10:07:22;;;;;;;34.97;31.37;;;10.80;83.40;;;;;;5007993;28;20464;-72
2021/11/18 10:10:02;;;;;;;33.43;30.80;;;11.00;83.30;;;;;;4999409;28;20456;-73
2021/11/18 10:12:48;;;;;;;32.87;29.93;;;11.10;82.60;;;;;;5006839;28;20477;-72
2021/11/18 10:15:19;;;;;;;34.20;31.20;;;11.20;81.50;;;;;;5008064;28;20539;-73
2021/11/18 10:17:52;;;;;;;36.20;33.10;;;11.30;80.50;;;;;;5007765;28;20542;-73
2021/11/18 10:20:23;;;;;;;35.67;32.80;;;11.20;80.10;;;;;;5007719;28;20817;-72
2021/11/18 10:22:54;;;;;;;36.60;33.23;;;11.30;79.80;;;;;;4998588;28;21001;-71
2021/11/18 10:25:28;;;;;;;37.63;34.40;;;11.40;78.20;;;;;;5006728;28;21114;-70
2021/11/18 10:27:59;;;;;;;34.73;31.83;;;11.40;77.80;;;;;;5005501;28;20456;-70
2021/11/18 10:30:39;;;;;;;35.80;33.00;;;11.20;78.70;;;;;;5007336;28;20575;-70
2021/11/18 10:33:12;;;;;;;35.97;32.87;;;11.20;78.70;;;;;;5008428;28;20739;-70
2021/11/18 10:35:46;;;;;;;35.00;32.00;;;11.20;78.50;;;;;;5004864;28;20461;-70
2021/11/18 10:38:37;;;;;;;34.43;31.40;;;11.30;78.60;;;;;;5006558;28;20465;-71
2021/11/18 10:41:14;;;;;;;36.60;33.67;;;11.60;77.70;;;;;;4996260;28;20453;-70
2021/11/18 10:43:41;;;;;;;34.70;31.90;;;11.50;77.20;;;;;;5006727;28;20483;-70
2021/11/18 10:46:13;;;;;;;35.60;32.80;;;11.40;77.40;;;;;;5007611;28;20448;-72
2021/11/18 10:48:54;;;;;;;34.20;31.30;;;11.30;78.10;;;;;;5008166;28;20451;-72
2021/11/18 10:51:32;;;;;;;35.27;32.47;;;11.30;77.90;;;;;;5007067;28;20519;-72
2021/11/18 10:54:01;;;;;;;32.90;30.50;;;11.40;79.20;;;;;;5010090;28;20881;-72
2021/11/18 10:56:33;;;;;;;34.70;31.80;;;11.40;80.50;;;;;;5009759;28;20874;-71
2021/11/18 10:59:05;;;;;;;33.70;31.20;;;11.40;80.20;;;;;;5011980;28;21029;-71
2021/11/18 11:01:35;;;;;;;34.27;31.57;;;11.50;78.20;;;;;;5010755;28;20556;-72
2021/11/18 11:04:06;;;;;;;33.20;30.70;;;11.50;77.70;;;;;;5009316;28;21069;-72
2021/11/18 11:06:34;;;;;;;33.77;30.97;;;11.70;77.30;;;;;;5008114;28;20563;-72
2021/11/18 11:09:16;;;;;;;33.27;30.50;;;11.70;76.90;;;;;;5011570;28;20475;-72
2021/11/18 11:12:08;;;;;;;103.23;36.37;;;11.90;77.00;;;;;;5009688;28;20551;-72
2021/11/18 11:15:22;;;;;;;32.37;29.77;;;11.70;83.80;;;;;;5000138;28;20723;-72
2021/11/18 11:18:08;;;;;;;33.57;30.90;;;11.80;79.10;;;;;;5001260;28;20563;-72
2021/11/18 11:20:48;;;;;;;36.50;33.60;;;11.90;77.00;;;;;;5006527;28;20471;-72
2021/11/18 11:23:21;;;;;;;32.50;30.30;;;12.00;76.40;;;;;;5010969;28;20480;-72
2021/11/18 11:26:25;;;;;;;35.47;32.97;;;12.00;76.60;;;;;;5009845;28;20472;-72
2021/11/18 11:29:02;;;;;;;32.20;29.80;;;12.20;76.90;;;;;;5007950;28;20474;-72
2021/11/18 11:31:40;;;;;;;31.37;28.93;;;12.30;76.40;;;;;;5009633;28;20483;-71
2021/11/18 11:34:23;;;;;;;32.10;29.93;;;12.50;75.40;;;;;;5009987;28;20559;-72
2021/11/18 11:36:58;;;;;;;33.10;30.83;;;12.60;75.00;;;;;;5009005;28;20456;-74
2021/11/18 11:39:29;;;;;;;32.23;29.97;;;12.60;74.10;;;;;;4999712;28;20456;-74
2021/11/18 11:42:26;;;;;;;31.27;28.97;;;12.40;75.30;;;;;;5009369;28;20461;-74
2021/11/18 11:45:11;;;;;;;30.90;28.80;;;12.30;74.10;;;;;;5003973;28;20449;-74
2021/11/18 11:48:20;;;;;;;31.77;29.50;;;12.10;75.30;;;;;;5009254;28;20950;-74
2021/11/18 11:51:27;;;;;;;30.00;28.10;;;11.90;76.00;;;;;;5008580;28;20457;-73
2021/11/18 11:54:19;;;;;;;29.87;27.73;;;11.90;76.50;;;;;;5004346;28;20558;-73
2021/11/18 11:56:49;;;;;;;30.77;28.50;;;11.80;76.60;;;;;;5008693;28;20510;-73
2021/11/18 11:59:22;;;;;;;34.30;31.33;;;11.70;76.70;;;;;;5010788;28;20471;-73
2021/11/18 12:01:56;;;;;;;33.97;31.27;;;11.60;80.00;;;;;;5010018;28;20488;-72
2021/11/18 12:04:27;;;;;;;34.70;32.13;;;11.70;77.70;;;;;;5009522;28;20476;-72
2021/11/18 12:07:00;;;;;;;34.10;31.33;;;11.50;80.00;;;;;;5008478;28;20471;-72
2021/11/18 12:09:37;;;;;;;35.47;32.87;;;11.30;78.80;;;;;;5011365;28;20467;-72
2021/11/18 12:12:19;;;;;;;33.40;30.80;;;11.40;78.50;;;;;;5009617;28;20456;-72
2021/11/18 12:14:48;;;;;;;34.47;31.77;;;11.40;78.40;;;;;;5009857;28;20484;-73
2021/11/18 12:17:19;;;;;;;33.23;30.63;;;11.40;80.50;;;;;;5005792;28;20914;-72
2021/11/18 12:19:48;;;;;;;33.83;31.10;;;11.30;82.30;;;;;;5011510;28;20566;-72
2021/11/18 12:22:34;;;;;;;33.47;31.10;;;11.20;82.90;;;;;;5009743;28;20961;-72
2021/11/18 12:25:12;;;;;;;32.37;29.73;;;11.20;79.90;;;;;;5006959;28;20455;-72
2021/11/18 12:27:58;;;;;;;36.47;33.27;;;11.10;79.80;;;;;;5008092;28;20969;-72
2021/11/18 12:30:36;;;;;;;34.50;31.80;;;10.90;80.90;;;;;;5009076;28;20870;-75
2021/11/18 12:33:07;;;;;;;33.30;30.77;;;11.00;80.90;;;;;;4997071;28;20538;-71
2021/11/18 12:35:48;;;;;;;35.40;32.57;;;11.00;81.10;;;;;;5009112;28;20461;-71
2021/11/18 12:38:37;;;;;;;34.07;31.00;;;11.20;80.40;;;;;;5010903;28;20453;-71
2021/11/18 12:41:12;;;;;;;37.03;34.17;;;11.20;79.90;;;;;;5008732;28;20449;-70
2021/11/18 12:43:51;;;;;;;33.87;30.93;;;11.20;79.90;;;;;;5008108;28;20555;-69
2021/11/18 12:46:24;;;;;;;32.80;30.70;;;11.00;80.30;;;;;;5006680;28;20467;-70
2021/11/18 12:49:14;;;;;;;30.70;28.50;;;10.90;80.70;;;;;;5006455;28;20803;-70
2021/11/18 12:52:14;;;;;;;30.87;28.77;;;11.00;81.20;;;;;;5008442;28;20453;-71